Time;durP1;ratioP1;P1;durP2;ratioP2;P2;SDS_P1;SDS_P2;PMS_P1;PMS_P2;Temp;Humidity;BMP_temperature;BMP_pressure;BME280_temperature;BME280_humidity;BME280_pressure;Samples;Min_cycle;Max_cycle;Signal;HPM_P1;HPM_P2
2023/10/12 00:00:48;;;;;;;1.92;1.50;;;;;;;;;;4982217;28;20225;-89
2023/10/12 00:03:16;;;;;;;2.63;1.60;;;;;;;;;;5000719;28;20263;-89
2023/10/12 00:05:45;;;;;;;1.70;1.50;;;;;;;;;;4986978;28;20282;-87
2023/10/12 00:08:30;;;;;;;1.90;1.70;;;;;;;;;;4998622;28;20605;-87
2023/10/12 00:10:56;;;;;;;1.98;1.60;;;;;;;;;;4980807;28;20244;-87
2023/10/12 00:13:28;;;;;;;1.63;1.52;;;;;;;;;;4994284;28;20823;-86
2023/10/12 00:15:56;;;;;;;2.75;2.00;;;;;;;;;;4980003;28;20217;-86
2023/10/12 00:18:31;;;;;;;1.98;1.73;;;;;;;;;;4982857;28;20214;-86
2023/10/12 00:20:57;;;;;;;5.55;2.03;;;;;;;;;;4997997;28;20221;-84
2023/10/12 00:23:26;;;;;;;2.08;1.58;;;;;;;;;;4986345;28;20224;-85
2023/10/12 00:25:58;;;;;;;3.53;2.13;;;;;;;;;;4960920;28;20244;-83
2023/10/12 00:28:28;;;;;;;5.32;1.90;;;;;;;;;;4995922;28;20229;-83
2023/10/12 00:31:05;;;;;;;3.17;1.90;;;;;;;;;;4993144;28;20265;-84
2023/10/12 00:33:31;;;;;;;2.13;1.88;;;;;;;;;;4988063;28;20252;-84
2023/10/12 00:36:11;;;;;;;4.20;2.28;;;;;;;;;;5011562;28;20592;-85
2023/10/12 00:38:38;;;;;;;2.33;2.00;;;;;;;;;;4974895;28;20236;-87
2023/10/12 00:41:05;;;;;;;4.65;1.90;;;;;;;;;;4961122;28;20586;-86
2023/10/12 00:43:36;;;;;;;3.63;1.80;;;;;;;;;;5010431;28;20221;-84
2023/10/12 00:46:20;;;;;;;6.68;2.33;;;;;;;;;;4987021;28;20222;-84
2023/10/12 00:48:47;;;;;;;5.97;2.40;;;;;;;;;;4969715;28;21059;-85
2023/10/12 00:51:16;;;;;;;8.93;2.30;;;;;;;;;;4978046;28;20217;-85
2023/10/12 00:53:55;;;;;;;3.67;2.60;;;;;;;;;;4981134;28;20221;-84
2023/10/12 00:56:28;;;;;;;2.95;2.50;;;;;;;;;;4984522;28;20216;-85
2023/10/12 00:58:57;;;;;;;3.72;2.70;;;;;;;;;;4983975;28;20712;-85
2023/10/12 01:01:31;;;;;;;3.40;2.70;;;;;;;;;;4978433;28;20224;-85
2023/10/12 01:03:59;;;;;;;3.58;2.85;;;;;;;;;;4984735;28;20219;-83
2023/10/12 01:08:59;;;;;;;3.67;2.60;;;;;;;;;;4976858;28;20224;-83
2023/10/12 01:11:34;;;;;;;2.33;2.13;;;;;;;;;;4975308;28;20312;-84
2023/10/12 01:16:42;;;;;;;2.05;1.63;;;;;;;;;;5001869;28;20220;-84
2023/10/12 01:19:08;;;;;;;2.42;1.70;;;;;;;;;;4978124;28;20216;-85
2023/10/12 01:21:37;;;;;;;2.20;2.00;;;;;;;;;;5007688;28;20220;-86
2023/10/12 01:24:12;;;;;;;3.47;1.67;;;;;;;;;;4975604;28;20239;-85
2023/10/12 01:26:43;;;;;;;1.65;1.50;;;;;;;;;;4991515;28;20750;-83
2023/10/12 01:29:17;;;;;;;3.35;1.88;;;;;;;;;;4977221;28;20220;-85
2023/10/12 01:31:47;;;;;;;3.27;1.40;;;;;;;;;;4984154;28;20276;-86
2023/10/12 01:34:17;;;;;;;2.73;1.40;;;;;;;;;;4965074;28;20221;-85
2023/10/12 01:36:44;;;;;;;2.65;1.20;;;;;;;;;;4987021;28;20220;-84
2023/10/12 01:39:15;;;;;;;1.67;1.25;;;;;;;;;;4971841;28;20213;-87
2023/10/12 01:41:43;;;;;;;2.37;1.50;;;;;;;;;;4974040;28;20256;-85
2023/10/12 01:44:11;;;;;;;1.60;1.23;;;;;;;;;;4980249;28;20221;-86
2023/10/12 01:46:40;;;;;;;2.22;1.40;;;;;;;;;;4992648;28;20721;-86
2023/10/12 01:49:12;;;;;;;3.50;1.33;;;;;;;;;;4994928;28;20217;-84
2023/10/12 01:51:40;;;;;;;1.58;1.30;;;;;;;;;;4978385;28;20300;-86
2023/10/12 01:54:11;;;;;;;3.33;1.40;;;;;;;;;;4957764;28;20221;-86
2023/10/12 01:56:37;;;;;;;1.85;1.45;;;;;;;;;;4964711;28;20296;-86
2023/10/12 01:59:08;;;;;;;2.33;1.65;;;;;;;;;;4992984;28;20213;-83
2023/10/12 02:01:42;;;;;;;2.85;1.40;;;;;;;;;;4989691;28;20690;-87
2023/10/12 02:04:08;;;;;;;2.80;1.52;;;;;;;;;;4991550;28;20235;-86
2023/10/12 02:06:33;;;;;;;3.50;1.52;;;;;;;;;;4985602;28;20234;-88
2023/10/12 02:09:08;;;;;;;3.37;1.50;;;;;;;;;;4952935;28;20757;-86
2023/10/12 02:11:53;;;;;;;3.20;2.00;;;;;;;;;;4992888;28;20221;-84
2023/10/12 02:14:33;;;;;;;6.67;1.87;;;;;;;;;;4989153;28;20635;-86
2023/10/12 02:17:02;;;;;;;7.47;2.27;;;;;;;;;;4977478;28;20559;-86
2023/10/12 02:19:42;;;;;;;7.53;1.90;;;;;;;;;;4975362;28;20221;-85
2023/10/12 02:22:28;;;;;;;6.63;2.10;;;;;;;;;;4969466;28;20618;-85
2023/10/12 02:25:18;;;;;;;6.20;2.10;;;;;;;;;;4992314;28;20232;-85
2023/10/12 02:27:54;;;;;;;9.80;1.97;;;;;;;;;;4977583;28;20229;-86
2023/10/12 02:30:27;;;;;;;5.40;2.20;;;;;;;;;;4975075;28;20221;-85
2023/10/12 02:33:12;;;;;;;6.20;2.40;;;;;;;;;;4959425;28;20296;-86
2023/10/12 02:35:44;;;;;;;5.13;2.00;;;;;;;;;;4958979;28;20216;-85
2023/10/12 02:38:15;;;;;;;7.07;2.17;;;;;;;;;;4990253;28;20231;-85
2023/10/12 02:40:45;;;;;;;7.23;2.47;;;;;;;;;;4971579;28;20228;-87
2023/10/12 02:43:15;;;;;;;12.57;2.50;;;;;;;;;;4993582;28;20240;-85
2023/10/12 02:45:42;;;;;;;7.97;2.50;;;;;;;;;;4981206;28;20221;-85
2023/10/12 02:48:13;;;;;;;7.17;2.30;;;;;;;;;;4961064;28;20228;-84
2023/10/12 02:50:57;;;;;;;7.63;2.33;;;;;;;;;;4963356;28;20240;-85
2023/10/12 02:53:31;;;;;;;7.90;2.40;;;;;;;;;;4957074;28;20418;-85
2023/10/12 02:56:00;;;;;;;7.47;2.60;;;;;;;;;;4985974;28;20216;-85
2023/10/12 02:58:30;;;;;;;7.37;2.77;;;;;;;;;;4979739;28;20240;-85
2023/10/12 03:01:12;;;;;;;5.73;2.60;;;;;;;;;;4996469;28;20958;-85
2023/10/12 03:03:47;;;;;;;8.83;2.57;;;;;;;;;;4991436;28;20245;-84
2023/10/12 03:06:15;;;;;;;8.70;2.77;;;;;;;;;;4960912;28;20706;-85
2023/10/12 03:09:02;;;;;;;8.57;2.70;;;;;;;;;;4985884;28;20224;-84
2023/10/12 03:11:36;;;;;;;7.43;2.60;;;;;;;;;;4987142;28;20225;-86
2023/10/12 03:14:16;;;;;;;10.60;2.67;;;;;;;;;;4972220;28;20702;-85
2023/10/12 03:16:42;;;;;;;6.50;2.37;;;;;;;;;;4971104;28;20228;-85
2023/10/12 03:19:23;;;;;;;7.00;2.37;;;;;;;;;;4991425;28;20279;-86
2023/10/12 03:21:51;;;;;;;7.30;2.30;;;;;;;;;;4982467;28;20760;-86
2023/10/12 03:24:17;;;;;;;7.22;2.53;;;;;;;;;;4989655;28;20224;-87
2023/10/12 03:26:48;;;;;;;8.47;2.83;;;;;;;;;;4965258;28;20809;-85
2023/10/12 03:34:20;;;;;;;5.60;2.63;;;;;;;;;;4993692;28;20229;-87
2023/10/12 03:36:48;;;;;;;7.17;2.70;;;;;;;;;;4982149;28;20748;-85
2023/10/12 03:39:25;;;;;;;6.57;2.50;;;;;;;;;;4993697;28;20303;-86
2023/10/12 03:49:57;;;;;;;9.50;3.17;;;;;;;;;;5007504;28;20220;-87
2023/10/12 03:52:28;;;;;;;8.50;3.20;;;;;;;;;;4957365;28;20229;-87
2023/10/12 03:57:38;;;;;;;9.20;3.43;;;;;;;;;;4990383;28;20240;-86
2023/10/12 04:04:34;;;;;;;10.57;3.43;;;;;;;;;;5002423;28;20236;-87
2023/10/12 04:09:31;;;;;;;10.57;3.87;;;;;;;;;;4985055;28;20213;-87
2023/10/12 04:14:44;;;;;;;12.97;4.00;;;;;;;;;;4988048;28;20308;-87
2023/10/12 04:17:22;;;;;;;9.73;4.13;;;;;;;;;;4981681;28;20229;-86
2023/10/12 04:25:31;;;;;;;12.27;4.70;;;;;;;;;;4975441;28;20247;-86
2023/10/12 04:33:17;;;;;;;11.27;5.30;;;;;;;;;;5005409;28;20218;-85
2023/10/12 04:43:51;;;;;;;14.50;4.80;;;;;;;;;;5018700;28;20220;-83
2023/10/12 04:48:50;;;;;;;9.23;4.43;;;;;;;;;;5002282;28;20226;-87
2023/10/12 04:51:19;;;;;;;9.90;4.77;;;;;;;;;;4961189;28;20224;-85
2023/10/12 04:53:57;;;;;;;11.17;4.83;;;;;;;;;;4987898;28;20741;-85
2023/10/12 04:56:26;;;;;;;13.60;4.47;;;;;;;;;;4998600;28;20340;-86
2023/10/12 04:59:14;;;;;;;9.60;4.83;;;;;;;;;;4971174;28;20606;-85
2023/10/12 05:02:01;;;;;;;12.23;4.83;;;;;;;;;;5000497;28;20713;-86
2023/10/12 05:04:38;;;;;;;9.70;4.97;;;;;;;;;;4985289;28;20225;-86
2023/10/12 05:09:49;;;;;;;12.40;5.63;;;;;;;;;;5002244;28;20703;-84
2023/10/12 05:12:23;;;;;;;12.47;5.47;;;;;;;;;;4960856;28;20225;-84
2023/10/12 05:14:56;;;;;;;11.43;5.80;;;;;;;;;;4995151;28;20225;-85
2023/10/12 05:17:24;;;;;;;11.37;5.17;;;;;;;;;;4989241;28;20341;-85
2023/10/12 05:19:55;;;;;;;15.73;5.50;;;;;;;;;;4967679;28;20269;-85
2023/10/12 05:22:20;;;;;;;12.30;5.63;;;;;;;;;;4978692;28;20213;-87
2023/10/12 05:24:48;;;;;;;16.23;6.03;;;;;;;;;;4994041;28;20239;-85
2023/10/12 05:27:24;;;;;;;13.60;6.13;;;;;;;;;;4996835;28;20240;-84
2023/10/12 05:29:59;;;;;;;11.03;5.80;;;;;;;;;;5012836;28;20255;-85
2023/10/12 05:32:38;;;;;;;16.77;6.50;;;;;;;;;;4994709;28;20232;-85
2023/10/12 05:35:06;;;;;;;16.63;7.27;;;;;;;;;;5013739;28;20768;-84
2023/10/12 05:37:38;;;;;;;15.27;7.50;;;;;;;;;;5007504;28;20221;-84
2023/10/12 05:40:13;;;;;;;14.00;7.43;;;;;;;;;;4990739;28;20217;-84
2023/10/12 05:42:43;;;;;;;10.73;7.60;;;;;;;;;;5010860;28;20247;-84
2023/10/12 05:45:27;;;;;;;16.73;8.67;;;;;;;;;;4984685;28;20232;-84
2023/10/12 05:47:53;;;;;;;13.73;7.87;;;;;;;;;;4989521;28;20320;-85
2023/10/12 05:50:30;;;;;;;12.93;7.97;;;;;;;;;;4973436;28;20217;-84
2023/10/12 05:52:59;;;;;;;16.97;8.87;;;;;;;;;;4983878;28;20689;-86
2023/10/12 05:55:25;;;;;;;15.43;8.23;;;;;;;;;;4979416;28;20213;-85
2023/10/12 05:57:51;;;;;;;13.83;8.03;;;;;;;;;;4974993;28;20235;-85
2023/10/12 06:00:35;;;;;;;14.27;8.60;;;;;;;;;;4964530;28;20212;-87
2023/10/12 06:03:02;;;;;;;16.40;9.03;;;;;;;;;;4968992;28;20220;-87
2023/10/12 06:05:34;;;;;;;13.10;7.80;;;;;;;;;;4988064;28;20228;-87
2023/10/12 06:08:03;;;;;;;17.47;8.77;;;;;;;;;;4968042;28;20308;-85
2023/10/12 06:10:33;;;;;;;14.93;8.10;;;;;;;;;;4980897;28;20220;-88
2023/10/12 06:12:59;;;;;;;13.57;8.40;;;;;;;;;;4989719;28;20221;-87
2023/10/12 06:15:39;;;;;;;14.90;8.43;;;;;;;;;;4963414;28;20259;-86
2023/10/12 06:18:30;;;;;;;18.20;8.87;;;;;;;;;;5000666;28;20229;-86
2023/10/12 06:21:24;;;;;;;14.23;9.10;;;;;;;;;;4995451;28;20296;-84
2023/10/12 06:23:54;;;;;;;15.03;9.33;;;;;;;;;;4986947;28;20251;-85
2023/10/12 06:26:28;;;;;;;14.60;8.93;;;;;;;;;;4989562;28;20229;-86
2023/10/12 06:28:55;;;;;;;17.83;9.50;;;;;;;;;;5005755;28;20316;-86
2023/10/12 06:31:21;;;;;;;16.87;10.43;;;;;;;;;;4965989;28;20220;-87
2023/10/12 06:33:49;;;;;;;18.37;10.30;;;;;;;;;;4998005;28;20262;-86
2023/10/12 06:36:22;;;;;;;15.37;9.97;;;;;;;;;;4970441;28;20200;-86
2023/10/12 06:39:02;;;;;;;18.23;10.30;;;;;;;;;;5002446;28;20241;-86
2023/10/12 06:44:12;;;;;;;16.77;9.03;;;;;;;;;;5001031;28;20233;-87
2023/10/12 06:46:45;;;;;;;18.53;8.90;;;;;;;;;;4997153;28;20252;-86
2023/10/12 06:49:17;;;;;;;14.30;7.07;;;;;;;;;;4994696;28;20240;-85
2023/10/12 06:51:43;;;;;;;18.10;7.83;;;;;;;;;;5000939;28;20309;-86
2023/10/12 06:54:19;;;;;;;15.33;6.60;;;;;;;;;;4984221;28;20252;-82
2023/10/12 06:56:51;;;;;;;13.23;7.00;;;;;;;;;;4985425;28;20658;-83
2023/10/12 07:04:14;;;;;;;17.17;6.53;;;;;;;;;;5018486;28;20256;-85
2023/10/12 07:07:07;;;;;;;13.20;5.10;;;;;;;;;;4982732;28;20237;-84
2023/10/12 07:09:46;;;;;;;15.77;5.40;;;;;;;;;;5014729;28;20698;-83
2023/10/12 07:12:13;;;;;;;9.10;4.13;;;;;;;;;;4969494;28;20283;-84
2023/10/12 07:14:46;;;;;;;22.20;4.73;;;;;;;;;;4976036;28;20247;-83
2023/10/12 07:17:12;;;;;;;13.53;4.03;;;;;;;;;;4985883;28;20221;-84
2023/10/12 07:19:41;;;;;;;11.57;3.90;;;;;;;;;;4969657;28;20292;-82
2023/10/12 07:22:13;;;;;;;15.30;3.80;;;;;;;;;;4999244;28;20233;-82
2023/10/12 07:24:39;;;;;;;11.27;3.87;;;;;;;;;;4972263;28;20252;-84
2023/10/12 07:27:17;;;;;;;11.10;4.57;;;;;;;;;;4994198;28;20243;-85
2023/10/12 07:29:47;;;;;;;12.27;3.47;;;;;;;;;;4997089;28;20368;-85
2023/10/12 07:32:31;;;;;;;14.17;3.27;;;;;;;;;;4974959;28;20811;-83
2023/10/12 07:35:05;;;;;;;8.10;3.70;;;;;;;;;;4995622;28;20259;-83
2023/10/12 07:37:33;;;;;;;7.87;3.00;;;;;;;;;;4982266;28;20234;-82
2023/10/12 07:40:14;;;;;;;9.10;3.43;;;;;;;;;;4971236;28;20234;-84
2023/10/12 07:42:40;;;;;;;10.63;3.80;;;;;;;;;;4977490;28;20240;-85
2023/10/12 07:45:06;;;;;;;8.50;2.47;;;;;;;;;;4963558;28;20237;-84
2023/10/12 07:47:32;;;;;;;11.07;3.43;;;;;;;;;;4969236;28;20252;-85
2023/10/12 07:50:14;;;;;;;15.33;3.47;;;;;;;;;;4961242;28;20378;-85
2023/10/12 07:52:46;;;;;;;10.30;3.27;;;;;;;;;;4988566;28;20228;-83
2023/10/12 07:55:12;;;;;;;10.03;3.73;;;;;;;;;;4988682;28;20241;-84
2023/10/12 07:57:39;;;;;;;14.23;4.10;;;;;;;;;;4980601;28;20757;-85
2023/10/12 08:10:48;;;;;;;11.77;3.57;;;;;;;;;;5019262;28;20217;-83
2023/10/12 08:21:16;;;;;;;9.17;3.17;;;;;;;;;;5006897;28;20224;-83
2023/10/12 08:23:46;;;;;;;9.30;3.13;;;;;;;;;;4999527;28;20280;-84
2023/10/12 08:27:18;;;;;;;10.17;2.80;;;;;;;;;;4997211;28;20376;-85
2023/10/12 08:32:04;;;;;;;12.00;2.90;;;;;;;;;;5015935;28;20254;-86
2023/10/12 08:39:49;;;;;;;9.27;3.23;;;;;;;;;;4994230;28;20228;-84
2023/10/12 08:44:55;;;;;;;9.07;2.90;;;;;;;;;;4990634;28;20263;-83
2023/10/12 08:47:27;;;;;;;8.63;3.10;;;;;;;;;;5004204;28;20231;-85
2023/10/12 08:49:53;;;;;;;10.73;2.80;;;;;;;;;;4980659;28;20244;-86
2023/10/12 08:52:27;;;;;;;13.03;3.43;;;;;;;;;;4960951;28;20244;-84
2023/10/12 08:54:56;;;;;;;9.67;3.33;;;;;;;;;;5013452;28;20239;-85
2023/10/12 08:57:55;;;;;;;9.33;2.90;;;;;;;;;;4996457;28;20225;-85
2023/10/12 09:05:51;;;;;;;11.43;3.38;;;;;;;;;;4994581;28;20260;-85
2023/10/12 09:13:33;;;;;;;8.80;2.70;;;;;;;;;;5014769;28;21002;-79
2023/10/12 09:16:09;;;;;;;6.78;2.58;;;;;;;;;;4990577;28;20226;-78
2023/10/12 09:18:43;;;;;;;8.23;2.78;;;;;;;;;;4991769;28;20889;-79
2023/10/12 09:21:24;;;;;;;9.35;2.40;;;;;;;;;;4992528;28;20228;-80
2023/10/12 09:24:06;;;;;;;11.05;2.45;;;;;;;;;;5003343;28;20229;-80
2023/10/12 09:26:34;;;;;;;10.80;3.00;;;;;;;;;;4974461;28;20228;-77
2023/10/12 09:36:38;;;;;;;5.93;1.77;;;;;;;;;;4985646;28;20279;-79
2023/10/12 09:39:11;;;;;;;4.90;1.73;;;;;;;;;;5006402;28;20209;-78
2023/10/12 09:41:54;;;;;;;5.55;2.28;;;;;;;;;;4992573;28;20224;-79
2023/10/12 09:44:25;;;;;;;5.75;1.98;;;;;;;;;;4992367;28;20709;-79
2023/10/12 09:46:55;;;;;;;11.80;2.00;;;;;;;;;;4985159;28;20248;-79
2023/10/12 09:49:27;;;;;;;5.60;2.03;;;;;;;;;;4970586;28;20216;-78
2023/10/12 09:52:00;;;;;;;6.63;2.20;;;;;;;;;;4976177;28;20226;-77
2023/10/12 09:54:48;;;;;;;5.65;1.92;;;;;;;;;;4986994;28;20597;-78
2023/10/12 09:57:19;;;;;;;5.35;2.10;;;;;;;;;;5000941;28;20233;-78
2023/10/12 09:59:52;;;;;;;6.68;2.05;;;;;;;;;;4976142;28;20256;-78
2023/10/12 10:02:32;;;;;;;4.22;1.55;;;;;;;;;;4986104;28;20232;-79
2023/10/12 10:05:11;;;;;;;6.75;1.98;;;;;;;;;;4986911;28;20233;-79
2023/10/12 10:07:55;;;;;;;6.82;2.30;;;;;;;;;;4957885;28;20231;-79
2023/10/12 10:10:39;;;;;;;12.07;2.15;;;;;;;;;;4977059;28;20227;-79
2023/10/12 10:13:10;;;;;;;5.55;1.65;;;;;;;;;;4988181;28;20750;-79
2023/10/12 10:15:57;;;;;;;10.13;2.30;;;;;;;;;;5003422;28;20701;-78
2023/10/12 10:18:25;;;;;;;6.20;2.10;;;;;;;;;;4993199;28;20221;-79
2023/10/12 10:20:58;;;;;;;6.55;2.35;;;;;;;;;;4991765;28;20232;-78
2023/10/12 10:23:24;;;;;;;7.63;2.10;;;;;;;;;;5000060;28;20232;-78
2023/10/12 10:26:36;;;;;;;9.73;2.22;;;;;;;;;;5007458;28;20218;-78
2023/10/12 10:28:55;;;;;;;6.57;2.15;;;;;;;;;;4977943;28;20229;-78
2023/10/12 10:31:32;;;;;;;10.40;2.20;;;;;;;;;;4991176;28;20220;-80
2023/10/12 10:34:01;;;;;;;5.68;1.80;;;;;;;;;;4974555;28;20221;-78
2023/10/12 10:36:34;;;;;;;5.03;1.80;;;;;;;;;;4983615;28;20225;-78
2023/10/12 10:39:04;;;;;;;5.28;1.98;;;;;;;;;;4992037;28;20303;-79
2023/10/12 10:44:21;;;;;;;4.90;1.58;;;;;;;;;;5005994;28;20303;-79
2023/10/12 10:46:57;;;;;;;6.60;1.83;;;;;;;;;;5012987;28;20282;-77
2023/10/12 10:49:34;;;;;;;10.10;2.25;;;;;;;;;;4991061;28;20232;-78
2023/10/12 10:52:13;;;;;;;5.80;2.20;;;;;;;;;;4997260;28;20224;-79
2023/10/12 10:54:41;;;;;;;4.97;1.83;;;;;;;;;;5003762;28;20404;-80
2023/10/12 10:57:16;;;;;;;4.80;1.80;;;;;;;;;;4989116;28;20220;-79
2023/10/12 10:59:44;;;;;;;5.85;1.83;;;;;;;;;;5000234;28;20232;-79
2023/10/12 11:02:14;;;;;;;5.15;1.75;;;;;;;;;;4983869;28;20232;-77
2023/10/12 11:07:11;;;;;;;5.85;1.75;;;;;;;;;;4974172;28;20232;-78
2023/10/12 11:12:23;;;;;;;5.30;1.92;;;;;;;;;;5000334;28;20225;-78
2023/10/12 11:15:01;;;;;;;7.82;2.22;;;;;;;;;;4985308;28;20228;-79
2023/10/12 11:17:40;;;;;;;6.68;2.00;;;;;;;;;;5003669;28;20239;-79
2023/10/12 11:20:26;;;;;;;8.85;2.33;;;;;;;;;;4971368;28;20216;-79
2023/10/12 11:22:53;;;;;;;6.47;2.25;;;;;;;;;;4996021;28;20253;-79
2023/10/12 11:25:21;;;;;;;7.43;1.98;;;;;;;;;;4974402;28;20217;-78
2023/10/12 11:27:46;;;;;;;5.50;2.03;;;;;;;;;;5006705;28;20690;-78
2023/10/12 11:30:19;;;;;;;6.05;1.80;;;;;;;;;;4991675;28;20220;-79
2023/10/12 11:32:53;;;;;;;8.13;2.17;;;;;;;;;;4993849;28;20268;-80
2023/10/12 11:35:40;;;;;;;8.07;2.22;;;;;;;;;;4985083;28;20224;-76
2023/10/12 11:38:18;;;;;;;5.35;1.88;;;;;;;;;;4991181;28;20290;-77
2023/10/12 11:40:48;;;;;;;8.90;2.00;;;;;;;;;;4988392;28;20827;-79
2023/10/12 11:43:13;;;;;;;7.55;2.03;;;;;;;;;;4989125;28;20326;-79
2023/10/12 11:46:03;;;;;;;17.30;2.35;;;;;;;;;;4980385;28;20227;-79
2023/10/12 11:48:29;;;;;;;5.68;2.15;;;;;;;;;;5004160;28;20232;-78
2023/10/12 11:50:58;;;;;;;10.10;2.08;;;;;;;;;;5008117;28;20291;-79
2023/10/12 11:53:25;;;;;;;10.98;2.20;;;;;;;;;;5022945;28;20233;-78
2023/10/12 11:56:17;;;;;;;7.82;1.90;;;;;;;;;;5005269;28;20247;-78
2023/10/12 11:58:54;;;;;;;7.60;1.90;;;;;;;;;;5013907;28;20701;-79
2023/10/12 12:01:40;;;;;;;6.03;1.67;;;;;;;;;;5011241;28;20248;-78
2023/10/12 12:04:15;;;;;;;5.80;2.10;;;;;;;;;;4988998;28;20322;-79
2023/10/12 12:06:42;;;;;;;6.03;1.70;;;;;;;;;;4999350;28;20338;-79
2023/10/12 12:09:10;;;;;;;7.32;1.80;;;;;;;;;;4995168;28;20311;-79
2023/10/12 12:11:38;;;;;;;7.32;1.85;;;;;;;;;;4988519;28;20232;-79
2023/10/12 12:14:07;;;;;;;5.43;1.88;;;;;;;;;;4980229;28;20228;-79
2023/10/12 12:16:38;;;;;;;4.47;2.10;;;;;;;;;;4980754;28;20784;-79
2023/10/12 12:19:04;;;;;;;5.30;2.10;;;;;;;;;;5020560;28;20275;-79
2023/10/12 12:21:31;;;;;;;6.05;1.80;;;;;;;;;;5018283;28;20316;-80
2023/10/12 12:26:49;;;;;;;4.25;1.70;;;;;;;;;;4998685;28;20241;-79
2023/10/12 12:29:24;;;;;;;4.80;2.22;;;;;;;;;;4995990;28;20229;-77
2023/10/12 12:31:54;;;;;;;6.72;1.85;;;;;;;;;;4984023;28;20233;-77
2023/10/12 12:34:41;;;;;;;6.45;2.00;;;;;;;;;;4992192;28;20221;-78
2023/10/12 12:37:10;;;;;;;12.45;2.10;;;;;;;;;;4995623;28;20229;-76
2023/10/12 12:39:36;;;;;;;5.30;2.30;;;;;;;;;;5013608;28;20221;-78
2023/10/12 12:42:09;;;;;;;4.00;2.00;;;;;;;;;;4996727;28;20221;-78
2023/10/12 12:44:37;;;;;;;5.38;1.75;;;;;;;;;;4995813;28;20225;-77
2023/10/12 12:47:06;;;;;;;9.07;1.70;;;;;;;;;;5024995;28;20325;-77
2023/10/12 12:49:32;;;;;;;5.07;1.88;;;;;;;;;;4978110;28;20236;-78
2023/10/12 12:51:58;;;;;;;6.10;1.85;;;;;;;;;;5010694;28;20318;-79
2023/10/12 12:54:26;;;;;;;7.30;1.88;;;;;;;;;;4974262;28;20958;-79
2023/10/12 12:56:53;;;;;;;3.58;1.40;;;;;;;;;;5011265;28;20221;-78
2023/10/12 12:59:23;;;;;;;5.40;1.77;;;;;;;;;;5004714;28;20659;-79
2023/10/12 13:01:50;;;;;;;5.13;1.75;;;;;;;;;;5012695;28;20241;-79
2023/10/12 13:04:17;;;;;;;4.30;1.73;;;;;;;;;;5004248;28;20252;-79
2023/10/12 13:06:43;;;;;;;5.03;1.63;;;;;;;;;;5006953;28;20794;-81
2023/10/12 13:09:28;;;;;;;4.13;1.98;;;;;;;;;;4987454;28;20225;-79
2023/10/12 13:11:55;;;;;;;4.75;2.00;;;;;;;;;;4998385;28;20977;-78
2023/10/12 13:14:21;;;;;;;6.95;1.90;;;;;;;;;;5012034;28;20227;-80
2023/10/12 13:16:49;;;;;;;7.03;2.00;;;;;;;;;;5005165;28;20225;-79
2023/10/12 13:19:17;;;;;;;4.43;1.73;;;;;;;;;;5000696;28;21163;-80
2023/10/12 13:21:47;;;;;;;5.43;2.10;;;;;;;;;;5016476;28;20454;-82
2023/10/12 13:24:13;;;;;;;4.28;1.70;;;;;;;;;;5032794;28;20248;-79
2023/10/12 13:26:44;;;;;;;7.78;2.05;;;;;;;;;;5020038;28;20268;-81
2023/10/12 13:29:13;;;;;;;4.22;1.73;;;;;;;;;;5028228;28;20575;-79
2023/10/12 13:31:41;;;;;;;5.82;2.03;;;;;;;;;;4975053;28;20221;-79
2023/10/12 13:34:10;;;;;;;5.05;1.77;;;;;;;;;;4994995;28;20228;-77
2023/10/12 13:36:39;;;;;;;5.22;2.00;;;;;;;;;;4986287;28;20654;-80
2023/10/12 13:39:09;;;;;;;8.82;2.17;;;;;;;;;;4992077;28;20217;-80
2023/10/12 13:41:35;;;;;;;6.97;2.00;;;;;;;;;;4995711;28;20232;-78
2023/10/12 13:44:05;;;;;;;8.18;2.13;;;;;;;;;;5000473;28;20213;-78
2023/10/12 13:46:35;;;;;;;6.05;1.95;;;;;;;;;;5014203;28;20315;-81
2023/10/12 13:49:06;;;;;;;13.52;2.28;;;;;;;;;;5007322;28;20275;-79
2023/10/12 13:51:32;;;;;;;8.50;2.25;;;;;;;;;;5000491;28;20284;-79
2023/10/12 13:54:03;;;;;;;5.43;1.60;;;;;;;;;;4952524;28;20221;-79
2023/10/12 13:56:34;;;;;;;5.15;1.90;;;;;;;;;;5007992;28;20239;-80
2023/10/12 13:59:09;;;;;;;15.02;2.45;;;;;;;;;;4981907;28;20304;-78
2023/10/12 14:01:36;;;;;;;6.40;2.20;;;;;;;;;;5000031;28;20235;-78
2023/10/12 14:04:22;;;;;;;6.60;1.85;;;;;;;;;;5012619;28;20221;-79
2023/10/12 14:06:52;;;;;;;9.43;2.10;;;;;;;;;;5000007;28;21049;-78
2023/10/12 14:09:25;;;;;;;5.25;1.90;;;;;;;;;;4993281;28;20236;-78
2023/10/12 14:11:54;;;;;;;10.07;1.83;;;;;;;;;;4997518;28;20244;-78
2023/10/12 14:14:20;;;;;;;7.28;1.98;;;;;;;;;;4997510;28;20698;-78
2023/10/12 14:16:48;;;;;;;5.85;1.88;;;;;;;;;;4975308;28;20228;-81
2023/10/12 14:19:16;;;;;;;5.43;1.92;;;;;;;;;;4992762;28;20237;-78
2023/10/12 14:21:47;;;;;;;7.78;2.20;;;;;;;;;;4989891;28;20225;-79
2023/10/12 14:24:16;;;;;;;8.30;2.33;;;;;;;;;;4983723;28;20257;-79
2023/10/12 14:26:43;;;;;;;8.07;2.08;;;;;;;;;;4998867;28;20303;-79
2023/10/12 14:29:09;;;;;;;5.20;1.88;;;;;;;;;;4983172;28;20218;-79
2023/10/12 14:31:34;;;;;;;5.25;1.92;;;;;;;;;;4987361;28;20248;-79
2023/10/12 14:34:06;;;;;;;5.18;2.08;;;;;;;;;;4982160;28;20224;-79
2023/10/12 14:36:35;;;;;;;6.57;2.05;;;;;;;;;;4992600;28;20220;-79
2023/10/12 14:39:00;;;;;;;4.80;1.70;;;;;;;;;;4964596;28;20205;-79
2023/10/12 14:41:28;;;;;;;6.40;2.03;;;;;;;;;;4983841;28;20232;-78
2023/10/12 14:43:55;;;;;;;5.20;1.80;;;;;;;;;;4992514;28;20280;-79
2023/10/12 14:46:20;;;;;;;8.25;2.22;;;;;;;;;;5020207;28;20295;-79
2023/10/12 14:48:52;;;;;;;6.05;2.05;;;;;;;;;;4981556;28;20217;-80
2023/10/12 14:51:20;;;;;;;6.78;2.28;;;;;;;;;;4995216;28;20663;-78
2023/10/12 14:53:46;;;;;;;6.28;2.00;;;;;;;;;;4998928;28;20236;-79
2023/10/12 14:56:14;;;;;;;5.72;1.70;;;;;;;;;;4999003;28;20220;-81
2023/10/12 14:58:42;;;;;;;3.50;1.67;;;;;;;;;;4976455;28;20221;-79
2023/10/12 15:01:13;;;;;;;3.28;1.92;;;;;;;;;;4994395;28;20228;-80
2023/10/12 15:03:39;;;;;;;5.10;1.70;;;;;;;;;;4973078;28;20233;-79
2023/10/12 15:06:08;;;;;;;11.82;1.95;;;;;;;;;;4999456;28;20871;-79
2023/10/12 15:08:39;;;;;;;6.10;2.20;;;;;;;;;;4989865;28;20297;-79
2023/10/12 15:11:07;;;;;;;6.00;1.95;;;;;;;;;;4994392;28;20217;-80
2023/10/12 15:13:41;;;;;;;4.80;2.08;;;;;;;;;;5001827;28;20236;-79
2023/10/12 15:16:10;;;;;;;5.95;1.73;;;;;;;;;;4985193;28;20237;-79
2023/10/12 15:18:41;;;;;;;4.68;1.83;;;;;;;;;;4999653;28;20237;-78
2023/10/12 15:21:13;;;;;;;7.20;1.98;;;;;;;;;;4976511;28;20233;-79
2023/10/12 15:23:40;;;;;;;8.00;2.42;;;;;;;;;;4989308;28;20224;-80
2023/10/12 15:26:06;;;;;;;7.25;1.80;;;;;;;;;;5003315;28;20651;-79
2023/10/12 15:28:36;;;;;;;10.68;2.40;;;;;;;;;;4971949;28;20225;-78
2023/10/12 15:31:03;;;;;;;3.67;1.77;;;;;;;;;;4967450;28;20228;-79
2023/10/12 15:33:30;;;;;;;3.65;1.92;;;;;;;;;;4998528;28;20259;-78
2023/10/12 15:35:55;;;;;;;6.25;1.80;;;;;;;;;;4992824;28;20292;-79
2023/10/12 15:38:21;;;;;;;7.50;2.10;;;;;;;;;;4995385;28;20225;-80
2023/10/12 15:40:46;;;;;;;3.80;1.65;;;;;;;;;;5002825;28;20221;-81
2023/10/12 15:43:15;;;;;;;7.68;2.00;;;;;;;;;;4989547;28;20283;-80
2023/10/12 15:45:43;;;;;;;6.63;1.90;;;;;;;;;;5008428;28;20228;-79
2023/10/12 15:48:12;;;;;;;4.57;1.80;;;;;;;;;;4976823;28;20312;-77
2023/10/12 15:50:45;;;;;;;8.65;2.70;;;;;;;;;;4993935;28;20328;-79
2023/10/12 15:53:11;;;;;;;8.45;3.00;;;;;;;;;;4999819;28;20221;-79
2023/10/12 15:55:43;;;;;;;12.73;2.95;;;;;;;;;;4998404;28;20223;-79
2023/10/12 15:58:11;;;;;;;5.43;2.58;;;;;;;;;;4994042;28;20223;-79
2023/10/12 16:00:38;;;;;;;6.03;2.60;;;;;;;;;;4985764;28;20217;-79
2023/10/12 16:03:06;;;;;;;6.97;2.15;;;;;;;;;;5005262;28;20256;-87
2023/10/12 16:05:33;;;;;;;7.38;2.33;;;;;;;;;;5007125;28;20209;-88
2023/10/12 16:08:02;;;;;;;10.57;2.30;;;;;;;;;;4961903;28;20719;-88
2023/10/12 16:10:32;;;;;;;7.10;2.15;;;;;;;;;;4945587;28;20233;-89
2023/10/12 16:12:57;;;;;;;7.30;2.13;;;;;;;;;;4963726;28;20232;-87
2023/10/12 16:15:27;;;;;;;9.73;2.38;;;;;;;;;;4977326;28;20217;-88
2023/10/12 16:17:58;;;;;;;5.43;1.85;;;;;;;;;;4979583;28;20313;-88
2023/10/12 16:20:26;;;;;;;6.13;2.05;;;;;;;;;;4962776;28;20734;-87
2023/10/12 16:22:58;;;;;;;5.57;1.63;;;;;;;;;;4965282;28;20277;-89
2023/10/12 16:25:23;;;;;;;7.75;2.22;;;;;;;;;;4948954;28;20260;-87
2023/10/12 16:27:50;;;;;;;4.85;2.10;;;;;;;;;;4984027;28;20685;-88
2023/10/12 16:30:18;;;;;;;5.60;2.30;;;;;;;;;;4984420;28;20234;-87
2023/10/12 16:32:48;;;;;;;7.97;2.22;;;;;;;;;;4965553;28;20221;-88
2023/10/12 16:35:19;;;;;;;6.15;2.33;;;;;;;;;;4980663;28;20721;-89
2023/10/12 16:37:56;;;;;;;6.05;1.95;;;;;;;;;;4997273;28;20636;-87
2023/10/12 16:40:22;;;;;;;7.15;2.22;;;;;;;;;;5002330;28;20229;-86
2023/10/12 16:42:53;;;;;;;8.52;2.63;;;;;;;;;;4983597;28;20222;-87
2023/10/12 16:45:22;;;;;;;3.72;2.08;;;;;;;;;;4985087;28;20261;-88
2023/10/12 16:47:48;;;;;;;7.53;2.13;;;;;;;;;;4964310;28;20233;-87
2023/10/12 16:50:13;;;;;;;4.22;2.20;;;;;;;;;;4965998;28;20221;-88
2023/10/12 16:52:41;;;;;;;13.27;2.63;;;;;;;;;;4997907;28;20638;-87
2023/10/12 16:55:09;;;;;;;5.65;1.98;;;;;;;;;;4997548;28;20245;-86
2023/10/12 16:57:37;;;;;;;10.23;2.30;;;;;;;;;;4966585;28;20690;-86
2023/10/12 17:00:14;;;;;;;5.40;2.05;;;;;;;;;;4981750;28;20221;-87
2023/10/12 17:02:39;;;;;;;7.35;2.15;;;;;;;;;;4981971;28;20669;-85
2023/10/12 17:05:09;;;;;;;5.57;2.15;;;;;;;;;;4965058;28;20222;-87